createdAt,value
2022-10-01T00:01:11.126Z,15.30
2022-10-01T00:03:38.284Z,15.30
2022-10-01T00:06:13.398Z,15.30
2022-10-01T00:08:41.316Z,15.30
2022-10-01T00:11:13.117Z,15.30
2022-10-01T00:13:40.612Z,15.30
2022-10-01T00:16:08.747Z,15.30
2022-10-01T00:18:39.852Z,15.20
2022-10-01T00:21:12.724Z,15.20
2022-10-01T00:23:39.723Z,15.20
2022-10-01T00:26:20.951Z,15.20
2022-10-01T00:28:50.027Z,15.20
2022-10-01T00:31:16.902Z,15.20
2022-10-01T00:33:43.769Z,15.20
2022-10-01T00:36:10.927Z,15.20
2022-10-01T00:38:38.288Z,15.20
2022-10-01T00:41:05.314Z,15.20
2022-10-01T00:43:34.451Z,15.20
2022-10-01T00:46:15.389Z,15.10
2022-10-01T00:48:50.689Z,15.10
2022-10-01T00:51:17.507Z,15.10
2022-10-01T00:53:44.803Z,15.10
2022-10-01T00:56:11.653Z,15.10
2022-10-01T00:58:39.389Z,15.10
2022-10-01T01:01:06.370Z,15.10
2022-10-01T01:03:33.194Z,15.10
2022-10-01T01:06:00.222Z,15.10
2022-10-01T01:08:27.063Z,15.10
2022-10-01T01:11:05.090Z,15.00
2022-10-01T01:13:40.736Z,15.00
2022-10-01T01:16:12.846Z,15.00
2022-10-01T01:19:00.730Z,15.10
2022-10-01T01:21:42.531Z,15.00
2022-10-01T01:24:14.461Z,15.10
2022-10-01T01:26:44.231Z,15.00
2022-10-01T01:29:21.697Z,15.00
2022-10-01T01:31:48.722Z,15.00
2022-10-01T01:34:24.264Z,15.00
2022-10-01T01:36:55.163Z,15.00
2022-10-01T01:39:21.991Z,15.00
2022-10-01T01:41:51.308Z,15.00
2022-10-01T01:44:22.110Z,15.00
2022-10-01T01:46:49.451Z,15.00
2022-10-01T01:49:17.734Z,15.00
2022-10-01T01:52:04.471Z,15.00
2022-10-01T01:54:31.537Z,15.00
2022-10-01T01:56:58.525Z,14.90
2022-10-01T01:59:26.622Z,14.90
2022-10-01T02:01:53.675Z,14.90
2022-10-01T02:04:20.586Z,14.80
2022-10-01T02:06:55.998Z,14.80
2022-10-01T02:10:05.755Z,14.80
2022-10-01T02:12:57.174Z,14.70
2022-10-01T02:15:41.987Z,14.70
2022-10-01T02:18:08.854Z,14.70
2022-10-01T02:20:42.228Z,14.60
2022-10-01T02:23:11.565Z,14.60
2022-10-01T02:25:42.768Z,14.60
2022-10-01T02:28:15.708Z,14.60
2022-10-01T02:30:44.614Z,14.50
2022-10-01T02:33:13.911Z,14.50
2022-10-01T02:35:41.343Z,14.50
2022-10-01T02:38:08.806Z,14.50
2022-10-01T02:40:37.808Z,14.50
2022-10-01T02:43:14.245Z,14.40
2022-10-01T02:45:41.201Z,14.40
2022-10-01T02:48:09.974Z,14.40
2022-10-01T02:51:07.013Z,14.40
2022-10-01T02:53:40.768Z,14.30
2022-10-01T02:56:07.615Z,14.30
2022-10-01T02:58:36.312Z,14.20
2022-10-01T03:01:03.676Z,14.20
2022-10-01T03:03:32.444Z,14.20
2022-10-01T03:05:59.252Z,14.20
2022-10-01T03:08:25.995Z,14.20
2022-10-01T03:10:52.838Z,14.10
2022-10-01T03:13:19.813Z,14.10
2022-10-01T03:15:47.079Z,14.10
2022-10-01T03:18:13.933Z,14.10
2022-10-01T03:20:40.730Z,14.00
2022-10-01T03:23:07.523Z,14.00
2022-10-01T03:25:34.314Z,14.00
2022-10-01T03:28:01.357Z,14.00
2022-10-01T03:30:28.426Z,14.00
2022-10-01T03:32:55.227Z,13.90
2022-10-01T03:35:22.872Z,14.00
2022-10-01T03:37:49.742Z,13.90
2022-10-01T03:40:16.528Z,13.90
2022-10-01T03:42:43.315Z,13.90
2022-10-01T03:45:10.202Z,13.90
2022-10-01T03:47:37.063Z,13.90
2022-10-01T03:50:04.109Z,13.90
2022-10-01T03:52:30.905Z,13.90
2022-10-01T03:54:57.700Z,13.90
2022-10-01T03:57:24.455Z,13.90
2022-10-01T03:59:51.257Z,13.90
2022-10-01T04:02:18.157Z,13.80
2022-10-01T04:04:45.132Z,13.80
2022-10-01T04:07:11.921Z,13.80
2022-10-01T04:09:38.739Z,13.90
2022-10-01T04:12:05.955Z,13.90
2022-10-01T04:14:32.707Z,13.80
2022-10-01T04:17:00.413Z,13.80
2022-10-01T04:19:27.268Z,13.70
2022-10-01T04:21:54.112Z,13.80
2022-10-01T04:24:20.908Z,13.70
2022-10-01T04:26:47.745Z,13.70
2022-10-01T04:29:14.636Z,13.60
2022-10-01T04:31:41.533Z,13.60
2022-10-01T04:34:08.357Z,13.60
2022-10-01T04:36:35.135Z,13.60
2022-10-01T04:39:02.950Z,13.60
2022-10-01T04:41:31.282Z,13.60
2022-10-01T04:43:59.715Z,13.60
2022-10-01T04:46:27.759Z,13.50
2022-10-01T04:48:54.657Z,13.50
2022-10-01T04:51:21.435Z,13.50
2022-10-01T04:53:48.295Z,13.50
2022-10-01T04:56:15.132Z,13.50
2022-10-01T04:58:41.912Z,13.40
2022-10-01T05:01:08.839Z,13.40
2022-10-01T05:03:35.681Z,13.40
2022-10-01T05:06:02.437Z,13.40
2022-10-01T05:08:29.629Z,13.40
2022-10-01T05:10:58.604Z,13.30
2022-10-01T05:13:31.842Z,13.40
2022-10-01T05:15:59.132Z,13.40
2022-10-01T05:18:26.149Z,13.30
2022-10-01T05:20:52.916Z,13.40
2022-10-01T05:23:19.774Z,13.30
2022-10-01T05:25:47.113Z,13.30
2022-10-01T05:28:17.214Z,13.30
2022-10-01T05:30:48.110Z,13.40
2022-10-01T05:33:15.073Z,13.30
2022-10-01T05:35:41.911Z,13.30
2022-10-01T05:38:08.741Z,13.30
2022-10-01T05:40:35.553Z,13.30
2022-10-01T05:43:04.476Z,13.30
2022-10-01T05:45:31.633Z,13.30
2022-10-01T05:48:03.178Z,13.30
2022-10-01T05:50:33.761Z,13.30
2022-10-01T05:53:01.151Z,13.30
2022-10-01T05:55:31.884Z,13.30
2022-10-01T05:58:00.239Z,13.30
2022-10-01T06:00:30.242Z,13.30
2022-10-01T06:02:58.203Z,13.20
2022-10-01T06:05:25.236Z,13.30
2022-10-01T06:07:53.539Z,13.30
2022-10-01T06:10:21.112Z,13.20
2022-10-01T06:12:48.533Z,13.20
2022-10-01T06:15:15.611Z,13.20
2022-10-01T06:17:45.353Z,13.20
2022-10-01T06:20:13.380Z,13.30
2022-10-01T06:22:41.031Z,13.30
2022-10-01T06:25:08.229Z,13.30
2022-10-01T06:27:35.112Z,13.30
2022-10-01T06:30:02.198Z,13.30
2022-10-01T06:32:34.088Z,13.30
2022-10-01T06:35:01.961Z,13.30
2022-10-01T06:37:28.848Z,13.30
2022-10-01T06:39:55.708Z,13.30
2022-10-01T06:42:22.560Z,13.30
2022-10-01T06:44:49.364Z,13.30
2022-10-01T06:47:16.252Z,13.40
2022-10-01T06:49:47.327Z,13.40
2022-10-01T06:52:33.490Z,13.40
2022-10-01T06:55:01.478Z,13.50
2022-10-01T06:57:28.754Z,13.50
2022-10-01T06:59:55.962Z,13.60
2022-10-01T07:02:28.674Z,13.70
2022-10-01T07:04:59.367Z,14.00
2022-10-01T07:07:31.046Z,14.20
2022-10-01T07:09:58.882Z,14.40
2022-10-01T07:12:26.048Z,14.50
2022-10-01T07:14:53.225Z,14.70
2022-10-01T07:17:20.708Z,14.70
2022-10-01T07:19:47.541Z,14.70
2022-10-01T07:22:14.365Z,14.60
2022-10-01T07:24:41.309Z,14.50
2022-10-01T07:27:08.197Z,14.50
2022-10-01T07:29:35.035Z,14.50
2022-10-01T07:32:02.159Z,14.40
2022-10-01T07:34:31.074Z,14.40
2022-10-01T07:36:57.958Z,14.40
2022-10-01T07:39:24.836Z,14.30
2022-10-01T07:41:51.889Z,14.40
2022-10-01T07:44:19.803Z,14.40
2022-10-01T07:46:47.209Z,14.40
2022-10-01T07:49:15.071Z,14.40
2022-10-01T07:51:43.937Z,14.50
2022-10-01T07:54:10.845Z,14.50
2022-10-01T07:56:37.931Z,14.60
2022-10-01T07:59:04.865Z,14.70
2022-10-01T08:01:32.546Z,14.70
2022-10-01T08:03:59.780Z,14.80
2022-10-01T08:06:26.936Z,14.80
2022-10-01T08:08:53.724Z,14.90
2022-10-01T08:11:24.680Z,14.90
2022-10-01T08:13:51.549Z,14.90
2022-10-01T08:16:18.721Z,15.00
2022-10-01T08:18:45.781Z,15.00
2022-10-01T08:21:14.204Z,15.00
2022-10-01T08:23:41.177Z,15.10
2022-10-01T08:26:08.542Z,15.10
2022-10-01T08:28:35.607Z,15.20
2022-10-01T08:31:07.538Z,15.20
2022-10-01T08:33:35.161Z,15.30
2022-10-01T08:36:02.905Z,15.40
2022-10-01T08:38:29.778Z,15.50
2022-10-01T08:40:56.637Z,15.60
2022-10-01T08:43:34.291Z,15.70
2022-10-01T08:46:15.044Z,15.70
2022-10-01T08:48:47.970Z,15.70
2022-10-01T08:51:33.284Z,15.80
2022-10-01T08:54:04.651Z,15.90
2022-10-01T08:56:34.187Z,16.00
2022-10-01T08:59:04.857Z,16.00
2022-10-01T09:01:32.037Z,16.10
2022-10-01T09:03:59.519Z,16.10
2022-10-01T09:06:26.808Z,16.20
2022-10-01T09:09:09.001Z,16.30
2022-10-01T09:12:01.122Z,16.40
2022-10-01T09:15:00.276Z,16.30
2022-10-01T09:17:53.892Z,16.30
2022-10-01T09:20:25.462Z,16.40
2022-10-01T09:23:15.355Z,16.50
2022-10-01T09:25:42.520Z,16.80
2022-10-01T09:28:15.470Z,17.10
2022-10-01T09:30:46.195Z,17.30
2022-10-01T09:33:22.789Z,17.40
2022-10-01T09:36:03.153Z,17.50
2022-10-01T09:38:42.702Z,17.50
2022-10-01T09:41:10.618Z,17.60
2022-10-01T09:43:38.937Z,17.60
2022-10-01T09:46:13.308Z,17.70
2022-10-01T09:48:56.886Z,17.70
2022-10-01T09:51:34.831Z,17.80
2022-10-01T09:54:22.489Z,17.70
2022-10-01T09:57:17.082Z,17.60
2022-10-01T10:00:11.690Z,17.50
2022-10-01T10:02:48.484Z,17.50
2022-10-01T10:05:20.659Z,17.60
2022-10-01T10:08:14.590Z,17.70
2022-10-01T10:10:49.069Z,17.80
2022-10-01T10:13:48.715Z,17.70
2022-10-01T10:16:16.657Z,17.50
2022-10-01T10:18:48.694Z,17.40
2022-10-01T10:21:16.632Z,17.40
2022-10-01T10:24:03.937Z,17.50
2022-10-01T10:26:36.174Z,17.50
2022-10-01T10:29:03.398Z,17.60
2022-10-01T10:31:42.593Z,17.80
2022-10-01T10:34:21.942Z,17.90
2022-10-01T10:36:48.762Z,18.10
2022-10-01T10:39:36.656Z,18.20
2022-10-01T10:42:04.105Z,18.30
2022-10-01T10:44:39.561Z,18.40
2022-10-01T10:47:16.738Z,18.50
2022-10-01T10:49:46.319Z,18.70
2022-10-01T10:52:36.834Z,18.90
2022-10-01T10:55:26.943Z,19.00
2022-10-01T10:57:57.478Z,19.10
2022-10-01T11:00:25.752Z,19.20
2022-10-01T11:03:01.742Z,19.00
2022-10-01T11:05:31.965Z,19.00
2022-10-01T11:08:00.929Z,18.90
2022-10-01T11:11:02.665Z,18.80
2022-10-01T11:13:41.322Z,18.80
2022-10-01T11:16:20.469Z,18.80
2022-10-01T11:19:01.345Z,18.90
2022-10-01T11:21:37.193Z,19.10
2022-10-01T11:24:15.942Z,19.30
2022-10-01T11:26:57.878Z,19.40
2022-10-01T11:29:51.460Z,19.30
2022-10-01T11:32:24.268Z,19.20
2022-10-01T11:35:28.534Z,19.20
2022-10-01T11:37:57.356Z,19.00
2022-10-01T11:40:35.967Z,18.90
2022-10-01T11:43:12.962Z,18.80
2022-10-01T11:45:45.908Z,18.70
2022-10-01T11:48:52.339Z,18.60
2022-10-01T11:51:25.385Z,18.60
2022-10-01T11:53:55.958Z,18.70
2022-10-01T11:56:46.087Z,18.60
2022-10-01T11:59:29.569Z,18.60
2022-10-01T12:02:15.421Z,18.50
2022-10-01T12:04:50.101Z,18.50
2022-10-01T12:07:44.014Z,18.40
2022-10-01T12:10:37.256Z,18.40
2022-10-01T12:13:16.646Z,18.30
2022-10-01T12:15:51.925Z,18.40
2022-10-01T12:18:23.119Z,18.40
2022-10-01T12:20:53.969Z,18.60
2022-10-01T12:23:22.928Z,18.80
2022-10-01T12:26:35.161Z,19.00
2022-10-01T12:29:17.133Z,19.20
2022-10-01T12:31:51.041Z,19.30
2022-10-01T12:34:45.870Z,19.40
2022-10-01T12:37:58.394Z,19.30
2022-10-01T12:40:53.908Z,19.20
2022-10-01T12:43:37.232Z,19.20
2022-10-01T12:46:12.955Z,19.20
2022-10-01T12:49:11.178Z,19.40
2022-10-01T12:51:52.987Z,19.50
2022-10-01T12:54:30.973Z,20.00
2022-10-01T12:57:17.277Z,20.50
2022-10-01T12:59:59.275Z,20.90
2022-10-01T13:02:49.338Z,21.10
2022-10-01T13:05:20.194Z,21.40
2022-10-01T13:07:53.003Z,21.50
2022-10-01T13:10:43.527Z,21.50
2022-10-01T13:13:27.335Z,21.30
2022-10-01T13:16:15.514Z,21.10
2022-10-01T13:18:57.636Z,20.90
2022-10-01T13:21:32.370Z,20.70
2022-10-01T13:24:09.746Z,20.50
2022-10-01T13:26:58.396Z,20.40
2022-10-01T13:29:25.472Z,20.30
2022-10-01T13:31:57.343Z,20.10
2022-10-01T13:34:26.217Z,20.00
2022-10-01T13:36:53.266Z,20.00
2022-10-01T13:39:22.253Z,20.00
2022-10-01T13:41:50.578Z,20.10
2022-10-01T13:44:27.750Z,20.10
2022-10-01T13:47:06.074Z,20.20
2022-10-01T13:49:34.220Z,20.20
2022-10-01T13:52:02.952Z,20.20
2022-10-01T13:54:47.391Z,20.10
2022-10-01T13:57:25.968Z,20.10
2022-10-01T14:00:23.130Z,19.90
2022-10-01T14:03:06.531Z,19.90
2022-10-01T14:05:42.867Z,19.90
2022-10-01T14:08:16.812Z,19.90
2022-10-01T14:11:15.339Z,19.90
2022-10-01T14:14:06.033Z,19.90
2022-10-01T14:16:45.473Z,19.90
2022-10-01T14:19:19.891Z,19.90
2022-10-01T14:22:12.076Z,20.00
2022-10-01T14:24:45.179Z,20.00
2022-10-01T14:27:36.407Z,20.20
2022-10-01T14:30:06.822Z,20.50
2022-10-01T14:32:52.557Z,21.00
2022-10-01T14:35:20.665Z,22.00
2022-10-01T14:37:47.529Z,22.70
2022-10-01T14:40:17.805Z,23.00
2022-10-01T14:42:45.104Z,23.30
2022-10-01T14:45:18.986Z,23.70
2022-10-01T14:47:48.794Z,24.10
2022-10-01T14:50:20.323Z,24.40
2022-10-01T14:52:48.804Z,24.70
2022-10-01T14:55:15.727Z,24.80
2022-10-01T14:57:49.347Z,24.50
2022-10-01T15:00:20.803Z,24.20
2022-10-01T15:02:52.291Z,24.00
2022-10-01T15:05:30.311Z,23.90
2022-10-01T15:07:57.185Z,23.90
2022-10-01T15:10:27.391Z,23.80
2022-10-01T15:12:55.036Z,23.50
2022-10-01T15:15:24.773Z,23.30
2022-10-01T15:17:51.607Z,23.50
2022-10-01T15:20:18.506Z,23.80
2022-10-01T15:22:46.446Z,23.80
2022-10-01T15:25:27.007Z,23.50
2022-10-01T15:27:54.348Z,23.40
2022-10-01T15:30:21.990Z,23.40
2022-10-01T15:32:48.858Z,23.20
2022-10-01T15:35:19.391Z,22.80
2022-10-01T15:37:50.108Z,22.60
2022-10-01T15:40:21.484Z,22.90
2022-10-01T15:43:06.884Z,23.10
2022-10-01T15:45:34.292Z,22.80
2022-10-01T15:48:01.285Z,22.50
2022-10-01T15:50:32.683Z,22.30
2022-10-01T15:53:06.346Z,22.30
2022-10-01T15:55:42.224Z,22.50
2022-10-01T15:58:26.989Z,23.00
2022-10-01T16:01:06.735Z,23.50
2022-10-01T16:03:41.940Z,24.00
2022-10-01T16:06:29.287Z,24.40
2022-10-01T16:09:00.836Z,24.50
2022-10-01T16:11:32.113Z,24.60
2022-10-01T16:14:22.483Z,24.50
2022-10-01T16:16:50.747Z,24.60
2022-10-01T16:19:30.920Z,24.60
2022-10-01T16:22:22.784Z,24.20
2022-10-01T16:24:54.962Z,23.70
2022-10-01T16:27:24.057Z,23.60
2022-10-01T16:30:06.943Z,23.60
2022-10-01T16:32:33.927Z,23.60
2022-10-01T16:35:23.876Z,23.70
2022-10-01T16:37:51.961Z,23.60
2022-10-01T16:40:19.547Z,23.50
2022-10-01T16:42:46.420Z,23.40
2022-10-01T16:45:22.533Z,23.30
2022-10-01T16:47:49.411Z,22.90
2022-10-01T16:50:17.743Z,22.30
2022-10-01T16:52:44.583Z,21.60
2022-10-01T16:55:22.554Z,21.00
2022-10-01T16:57:50.115Z,20.50
2022-10-01T17:00:18.246Z,20.00
2022-10-01T17:02:45.255Z,19.70
2022-10-01T17:05:26.361Z,19.50
2022-10-01T17:07:54.067Z,19.20
2022-10-01T17:10:25.024Z,19.00
2022-10-01T17:12:51.872Z,18.90
2022-10-01T17:15:23.209Z,18.70
2022-10-01T17:17:50.142Z,18.60
2022-10-01T17:20:17.077Z,18.50
2022-10-01T17:22:43.997Z,18.40
2022-10-01T17:25:17.833Z,18.40
2022-10-01T17:27:44.833Z,18.30
2022-10-01T17:30:12.060Z,18.20
2022-10-01T17:32:40.202Z,18.10
2022-10-01T17:35:07.714Z,18.10
2022-10-01T17:37:34.750Z,17.90
2022-10-01T17:40:01.871Z,17.90
2022-10-01T17:42:28.931Z,17.80
2022-10-01T17:44:55.778Z,17.80
2022-10-01T17:47:22.732Z,17.70
2022-10-01T17:49:49.564Z,17.70
2022-10-01T17:52:16.675Z,17.60
2022-10-01T17:54:43.517Z,17.50
2022-10-01T17:57:10.888Z,17.50
2022-10-01T17:59:38.293Z,17.40
2022-10-01T18:02:29.614Z,17.40
2022-10-01T18:04:55.407Z,17.30
2022-10-01T18:07:22.381Z,17.30
2022-10-01T18:09:49.313Z,17.30
2022-10-01T18:12:16.179Z,17.20
2022-10-01T18:14:43.229Z,17.20
2022-10-01T18:17:10.160Z,17.20
2022-10-01T18:19:53.668Z,17.20
2022-10-01T18:22:20.962Z,17.20
2022-10-01T18:24:47.777Z,17.10
2022-10-01T18:27:14.926Z,17.10
2022-10-01T18:29:41.717Z,17.00
2022-10-01T18:32:17.769Z,17.00
2022-10-01T18:34:52.964Z,16.90
2022-10-01T18:37:30.796Z,16.90
2022-10-01T18:40:03.878Z,16.90
2022-10-01T18:42:54.704Z,16.90
2022-10-01T18:45:44.797Z,16.80
2022-10-01T18:48:38.479Z,16.80
2022-10-01T18:51:15.077Z,16.70
2022-10-01T18:53:52.026Z,16.70
2022-10-01T18:56:36.590Z,16.70
2022-10-01T18:59:33.279Z,16.70
2022-10-01T19:02:27.424Z,16.60
2022-10-01T19:05:29.554Z,16.60
2022-10-01T19:08:08.602Z,16.60
2022-10-01T19:10:52.795Z,16.60
2022-10-01T19:13:24.658Z,16.70
2022-10-01T19:16:05.961Z,16.70
2022-10-01T19:18:44.916Z,16.70
2022-10-01T19:21:18.875Z,16.70
2022-10-01T19:24:04.285Z,16.70
2022-10-01T19:26:57.994Z,16.70
2022-10-01T19:29:31.516Z,16.70
2022-10-01T19:32:02.316Z,16.70
2022-10-01T19:34:57.851Z,16.70
2022-10-01T19:37:33.813Z,16.70
2022-10-01T19:40:05.170Z,16.60
2022-10-01T19:42:35.359Z,16.60
2022-10-01T19:45:12.032Z,16.60
2022-10-01T19:47:40.404Z,16.60
2022-10-01T19:50:24.125Z,16.60
2022-10-01T19:52:51.693Z,16.60
2022-10-01T19:55:20.287Z,16.60
2022-10-01T19:57:47.340Z,16.60
2022-10-01T20:00:20.013Z,16.50
2022-10-01T20:03:13.186Z,16.50
2022-10-01T20:05:58.465Z,16.50
2022-10-01T20:08:36.253Z,16.50
2022-10-01T20:11:06.415Z,16.50
2022-10-01T20:13:36.792Z,16.40
2022-10-01T20:16:22.437Z,16.50
2022-10-01T20:18:57.818Z,16.40
2022-10-01T20:21:38.508Z,16.40
2022-10-01T20:24:43.361Z,16.40
2022-10-01T20:27:16.450Z,16.40
2022-10-01T20:30:04.917Z,16.40
2022-10-01T20:32:52.577Z,16.40
2022-10-01T20:35:22.978Z,16.30
2022-10-01T20:38:43.888Z,16.30
2022-10-01T20:41:14.951Z,16.20
2022-10-01T20:43:55.919Z,16.20
2022-10-01T20:46:40.968Z,16.20
2022-10-01T20:49:32.970Z,16.20
2022-10-01T20:52:37.830Z,16.20
2022-10-01T20:55:29.117Z,16.20
2022-10-01T20:58:02.317Z,16.20
2022-10-01T21:00:31.047Z,16.20
2022-10-01T21:03:19.241Z,16.20
2022-10-01T21:05:53.590Z,16.20
2022-10-01T21:08:41.098Z,16.20
2022-10-01T21:11:14.587Z,16.20
2022-10-01T21:13:55.670Z,16.20
2022-10-01T21:16:37.284Z,16.20
2022-10-01T21:19:38.922Z,16.10
2022-10-01T21:22:24.897Z,16.10
2022-10-01T21:25:28.586Z,16.10
2022-10-01T21:28:04.067Z,16.10
2022-10-01T21:30:49.738Z,16.00
2022-10-01T21:33:25.033Z,16.00
2022-10-01T21:35:53.112Z,16.00
2022-10-01T21:38:32.466Z,16.00
2022-10-01T21:41:26.105Z,16.00
2022-10-01T21:44:15.676Z,16.10
2022-10-01T21:46:50.250Z,16.20
2022-10-01T21:49:24.601Z,16.30
2022-10-01T21:51:55.501Z,16.30
2022-10-01T21:54:44.971Z,16.30
2022-10-01T21:57:36.761Z,16.30
2022-10-01T22:00:26.207Z,16.20
2022-10-01T22:03:14.014Z,16.20
2022-10-01T22:06:11.814Z,16.30
2022-10-01T22:08:55.094Z,16.40
2022-10-01T22:12:03.128Z,16.50
2022-10-01T22:14:31.123Z,16.60
2022-10-01T22:17:01.303Z,16.60
2022-10-01T22:19:34.695Z,16.60
2022-10-01T22:22:07.553Z,16.50
2022-10-01T22:24:39.432Z,16.40
2022-10-01T22:27:15.998Z,16.40
2022-10-01T22:29:46.504Z,16.30
2022-10-01T22:32:13.946Z,16.30
2022-10-01T22:34:52.517Z,16.20
2022-10-01T22:37:44.129Z,16.10
2022-10-01T22:40:21.484Z,16.10
2022-10-01T22:42:55.406Z,16.00
2022-10-01T22:45:22.234Z,15.90
2022-10-01T22:47:56.025Z,15.90
2022-10-01T22:50:32.090Z,15.90
2022-10-01T22:53:08.825Z,15.80
2022-10-01T22:55:47.842Z,15.70
2022-10-01T22:58:35.372Z,15.70
2022-10-01T23:01:21.008Z,15.70
2022-10-01T23:03:55.658Z,15.70
2022-10-01T23:06:35.994Z,15.60
2022-10-01T23:09:08.790Z,15.60
2022-10-01T23:11:54.145Z,15.60
2022-10-01T23:14:30.120Z,15.60
2022-10-01T23:17:04.702Z,15.50
2022-10-01T23:19:37.388Z,15.50
2022-10-01T23:22:07.506Z,15.40
2022-10-01T23:25:02.795Z,15.40
2022-10-01T23:27:32.479Z,15.40
2022-10-01T23:30:04.509Z,15.30
2022-10-01T23:32:46.777Z,15.30
2022-10-01T23:35:14.632Z,15.30
2022-10-01T23:37:58.033Z,15.20
2022-10-01T23:40:31.057Z,15.20
2022-10-01T23:43:16.478Z,15.20
2022-10-01T23:45:46.618Z,15.20
2022-10-01T23:48:37.086Z,15.20
2022-10-01T23:51:14.023Z,15.20
2022-10-01T23:54:07.263Z,15.20
2022-10-01T23:56:48.572Z,15.10
2022-10-01T23:59:28.499Z,15.10
